sensor_id;sensor_type;location;lat;lon;timestamp;temperature;humidity
65369;HTU21D;51970;53.484;49.488;2023-07-09T00:01:05;22.16;65.90
65369;HTU21D;51970;53.484;49.488;2023-07-09T00:03:31;22.17;65.60
65369;HTU21D;51970;53.484;49.488;2023-07-09T00:05:58;22.20;65.59
65369;HTU21D;51970;53.484;49.488;2023-07-09T00:08:29;22.17;65.53
65369;HTU21D;51970;53.484;49.488;2023-07-09T00:10:57;22.18;65.56
65369;HTU21D;51970;53.484;49.488;2023-07-09T00:13:25;22.16;65.60
65369;HTU21D;51970;53.484;49.488;2023-07-09T00:15:53;22.14;65.49
65369;HTU21D;51970;53.484;49.488;2023-07-09T00:18:21;22.16;65.44
65369;HTU21D;51970;53.484;49.488;2023-07-09T00:20:47;22.17;65.45
65369;HTU21D;51970;53.484;49.488;2023-07-09T00:23:14;22.21;65.28
65369;HTU21D;51970;53.484;49.488;2023-07-09T00:25:40;22.21;65.05
65369;HTU21D;51970;53.484;49.488;2023-07-09T00:28:17;22.23;64.83
65369;HTU21D;51970;53.484;49.488;2023-07-09T00:30:48;22.22;64.79
65369;HTU21D;51970;53.484;49.488;2023-07-09T00:33:15;22.22;64.71
65369;HTU21D;51970;53.484;49.488;2023-07-09T00:35:46;22.22;64.54
65369;HTU21D;51970;53.484;49.488;2023-07-09T00:38:21;22.25;64.31
65369;HTU21D;51970;53.484;49.488;2023-07-09T00:41:05;22.29;64.19
65369;HTU21D;51970;53.484;49.488;2023-07-09T00:43:36;22.37;63.88
65369;HTU21D;51970;53.484;49.488;2023-07-09T00:48:58;22.46;63.55
65369;HTU21D;51970;53.484;49.488;2023-07-09T00:51:26;22.55;63.99
65369;HTU21D;51970;53.484;49.488;2023-07-09T00:53:58;22.67;64.01
65369;HTU21D;51970;53.484;49.488;2023-07-09T00:56:37;22.75;64.14
65369;HTU21D;51970;53.484;49.488;2023-07-09T00:59:04;22.81;63.89
65369;HTU21D;51970;53.484;49.488;2023-07-09T01:01:33;22.90;63.62
65369;HTU21D;51970;53.484;49.488;2023-07-09T01:04:02;23.00;63.26
65369;HTU21D;51970;53.484;49.488;2023-07-09T01:06:36;23.10;63.14
65369;HTU21D;51970;53.484;49.488;2023-07-09T01:09:04;23.12;63.10
65369;HTU21D;51970;53.484;49.488;2023-07-09T01:11:32;23.32;62.60
65369;HTU21D;51970;53.484;49.488;2023-07-09T01:14:01;24.01;60.57
65369;HTU21D;51970;53.484;49.488;2023-07-09T01:16:36;24.78;58.37
65369;HTU21D;51970;53.484;49.488;2023-07-09T01:19:04;25.83;55.16
65369;HTU21D;51970;53.484;49.488;2023-07-09T01:21:31;26.89;52.17
65369;HTU21D;51970;53.484;49.488;2023-07-09T01:23:58;27.47;50.48
65369;HTU21D;51970;53.484;49.488;2023-07-09T01:26:26;27.73;49.67
65369;HTU21D;51970;53.484;49.488;2023-07-09T01:28:54;27.80;49.16
65369;HTU21D;51970;53.484;49.488;2023-07-09T01:31:21;27.46;50.12
65369;HTU21D;51970;53.484;49.488;2023-07-09T01:33:48;27.47;50.25
65369;HTU21D;51970;53.484;49.488;2023-07-09T01:36:18;27.72;49.65
65369;HTU21D;51970;53.484;49.488;2023-07-09T01:38:50;27.76;49.31
65369;HTU21D;51970;53.484;49.488;2023-07-09T01:41:17;27.50;49.92
65369;HTU21D;51970;53.484;49.488;2023-07-09T01:43:46;26.47;52.26
65369;HTU21D;51970;53.484;49.488;2023-07-09T01:46:12;25.91;54.33
65369;HTU21D;51970;53.484;49.488;2023-07-09T01:48:40;25.66;54.74
65369;HTU21D;51970;53.484;49.488;2023-07-09T01:51:09;25.56;54.79
65369;HTU21D;51970;53.484;49.488;2023-07-09T01:53:38;25.53;55.10
65369;HTU21D;51970;53.484;49.488;2023-07-09T01:56:05;25.90;53.65
65369;HTU21D;51970;53.484;49.488;2023-07-09T01:58:34;26.08;53.37
65369;HTU21D;51970;53.484;49.488;2023-07-09T02:01:01;25.98;53.46
65369;HTU21D;51970;53.484;49.488;2023-07-09T02:03:27;25.79;53.75
65369;HTU21D;51970;53.484;49.488;2023-07-09T02:05:54;25.30;55.32
65369;HTU21D;51970;53.484;49.488;2023-07-09T02:08:20;24.79;57.45
65369;HTU21D;51970;53.484;49.488;2023-07-09T02:10:50;24.43;58.18
65369;HTU21D;51970;53.484;49.488;2023-07-09T02:13:17;24.23;58.90
65369;HTU21D;51970;53.484;49.488;2023-07-09T02:15:44;24.11;59.52
65369;HTU21D;51970;53.484;49.488;2023-07-09T02:18:11;24.01;58.89
65369;HTU21D;51970;53.484;49.488;2023-07-09T02:20:37;23.98;58.96
65369;HTU21D;51970;53.484;49.488;2023-07-09T02:23:05;23.94;59.29
65369;HTU21D;51970;53.484;49.488;2023-07-09T02:25:31;23.89;59.70
65369;HTU21D;51970;53.484;49.488;2023-07-09T02:27:57;23.75;60.31
65369;HTU21D;51970;53.484;49.488;2023-07-09T02:30:24;23.60;61.83
65369;HTU21D;51970;53.484;49.488;2023-07-09T02:32:50;23.44;63.02
65369;HTU21D;51970;53.484;49.488;2023-07-09T02:35:22;23.21;64.82
65369;HTU21D;51970;53.484;49.488;2023-07-09T02:37:49;23.00;65.95
65369;HTU21D;51970;53.484;49.488;2023-07-09T02:40:15;22.82;67.20
65369;HTU21D;51970;53.484;49.488;2023-07-09T02:42:42;22.55;67.60
65369;HTU21D;51970;53.484;49.488;2023-07-09T02:45:09;22.44;68.46
65369;HTU21D;51970;53.484;49.488;2023-07-09T02:47:35;22.53;68.76
65369;HTU21D;51970;53.484;49.488;2023-07-09T02:50:03;22.66;68.70
65369;HTU21D;51970;53.484;49.488;2023-07-09T02:52:29;22.76;67.47
65369;HTU21D;51970;53.484;49.488;2023-07-09T02:54:56;22.93;65.82
65369;HTU21D;51970;53.484;49.488;2023-07-09T02:57:22;23.13;63.91
65369;HTU21D;51970;53.484;49.488;2023-07-09T02:59:48;23.36;63.69
65369;HTU21D;51970;53.484;49.488;2023-07-09T03:02:14;23.61;61.29
65369;HTU21D;51970;53.484;49.488;2023-07-09T03:04:41;23.83;59.73
65369;HTU21D;51970;53.484;49.488;2023-07-09T03:07:07;23.92;59.19
65369;HTU21D;51970;53.484;49.488;2023-07-09T03:09:33;23.95;59.56
65369;HTU21D;51970;53.484;49.488;2023-07-09T03:11:59;23.96;59.88
65369;HTU21D;51970;53.484;49.488;2023-07-09T03:14:25;23.97;60.31
65369;HTU21D;51970;53.484;49.488;2023-07-09T03:16:52;23.91;60.09
65369;HTU21D;51970;53.484;49.488;2023-07-09T03:19:19;23.95;59.80
65369;HTU21D;51970;53.484;49.488;2023-07-09T03:21:45;24.10;59.80
65369;HTU21D;51970;53.484;49.488;2023-07-09T03:24:11;24.50;57.67
65369;HTU21D;51970;53.484;49.488;2023-07-09T03:26:45;24.90;54.36
65369;HTU21D;51970;53.484;49.488;2023-07-09T03:29:12;25.40;53.33
65369;HTU21D;51970;53.484;49.488;2023-07-09T03:31:38;25.74;52.79
65369;HTU21D;51970;53.484;49.488;2023-07-09T03:34:05;26.15;51.17
65369;HTU21D;51970;53.484;49.488;2023-07-09T03:36:31;26.62;50.09
65369;HTU21D;51970;53.484;49.488;2023-07-09T03:38:57;27.36;47.87
65369;HTU21D;51970;53.484;49.488;2023-07-09T03:41:24;28.69;45.05
65369;HTU21D;51970;53.484;49.488;2023-07-09T03:43:50;30.02;41.10
65369;HTU21D;51970;53.484;49.488;2023-07-09T03:46:18;30.15;40.44
65369;HTU21D;51970;53.484;49.488;2023-07-09T03:48:45;29.56;41.43
65369;HTU21D;51970;53.484;49.488;2023-07-09T03:51:11;29.06;43.10
65369;HTU21D;51970;53.484;49.488;2023-07-09T03:53:37;29.00;43.18
65369;HTU21D;51970;53.484;49.488;2023-07-09T03:56:04;28.85;43.29
65369;HTU21D;51970;53.484;49.488;2023-07-09T03:58:30;28.86;43.35
65369;HTU21D;51970;53.484;49.488;2023-07-09T04:00:56;28.69;43.08
65369;HTU21D;51970;53.484;49.488;2023-07-09T04:03:23;28.69;43.96
65369;HTU21D;51970;53.484;49.488;2023-07-09T04:05:49;28.89;43.16
65369;HTU21D;51970;53.484;49.488;2023-07-09T04:08:16;28.90;43.71
65369;HTU21D;51970;53.484;49.488;2023-07-09T04:10:43;29.08;43.40
65369;HTU21D;51970;53.484;49.488;2023-07-09T04:13:09;29.41;42.65
65369;HTU21D;51970;53.484;49.488;2023-07-09T04:15:35;29.60;41.97
65369;HTU21D;51970;53.484;49.488;2023-07-09T04:18:02;29.86;41.65
65369;HTU21D;51970;53.484;49.488;2023-07-09T04:20:28;29.89;42.30
65369;HTU21D;51970;53.484;49.488;2023-07-09T04:22:54;29.76;42.73
65369;HTU21D;51970;53.484;49.488;2023-07-09T04:25:21;29.81;42.69
65369;HTU21D;51970;53.484;49.488;2023-07-09T04:27:47;29.97;42.23
65369;HTU21D;51970;53.484;49.488;2023-07-09T04:30:15;30.12;42.39
65369;HTU21D;51970;53.484;49.488;2023-07-09T04:32:43;30.46;41.76
65369;HTU21D;51970;53.484;49.488;2023-07-09T04:35:10;30.61;41.31
65369;HTU21D;51970;53.484;49.488;2023-07-09T04:37:38;30.99;40.65
65369;HTU21D;51970;53.484;49.488;2023-07-09T04:40:05;31.40;39.60
65369;HTU21D;51970;53.484;49.488;2023-07-09T04:42:33;31.41;39.18
65369;HTU21D;51970;53.484;49.488;2023-07-09T04:44:59;31.21;38.24
65369;HTU21D;51970;53.484;49.488;2023-07-09T04:47:25;31.05;37.91
65369;HTU21D;51970;53.484;49.488;2023-07-09T04:49:51;31.05;38.17
65369;HTU21D;51970;53.484;49.488;2023-07-09T04:52:17;30.79;38.72
65369;HTU21D;51970;53.484;49.488;2023-07-09T04:54:44;30.66;38.24
65369;HTU21D;51970;53.484;49.488;2023-07-09T04:57:12;30.74;39.01
65369;HTU21D;51970;53.484;49.488;2023-07-09T04:59:38;30.86;38.85
65369;HTU21D;51970;53.484;49.488;2023-07-09T05:02:05;31.10;38.20
65369;HTU21D;51970;53.484;49.488;2023-07-09T05:04:31;31.36;36.85
65369;HTU21D;51970;53.484;49.488;2023-07-09T05:06:58;31.59;36.66
65369;HTU21D;51970;53.484;49.488;2023-07-09T05:09:25;31.89;35.69
65369;HTU21D;51970;53.484;49.488;2023-07-09T05:11:51;32.10;35.02
65369;HTU21D;51970;53.484;49.488;2023-07-09T05:14:18;31.85;35.29
65369;HTU21D;51970;53.484;49.488;2023-07-09T05:16:44;31.93;35.40
65369;HTU21D;51970;53.484;49.488;2023-07-09T05:19:11;31.90;34.43
65369;HTU21D;51970;53.484;49.488;2023-07-09T05:21:38;31.70;35.80
65369;HTU21D;51970;53.484;49.488;2023-07-09T05:24:05;31.69;34.57
65369;HTU21D;51970;53.484;49.488;2023-07-09T05:26:31;31.67;35.21
65369;HTU21D;51970;53.484;49.488;2023-07-09T05:28:57;31.88;35.95
65369;HTU21D;51970;53.484;49.488;2023-07-09T05:31:24;31.93;34.80
65369;HTU21D;51970;53.484;49.488;2023-07-09T05:33:51;32.05;34.11
65369;HTU21D;51970;53.484;49.488;2023-07-09T05:36:17;32.32;34.34
65369;HTU21D;51970;53.484;49.488;2023-07-09T05:38:45;32.46;33.41
65369;HTU21D;51970;53.484;49.488;2023-07-09T05:41:15;32.83;33.03
65369;HTU21D;51970;53.484;49.488;2023-07-09T05:43:45;32.84;32.99
65369;HTU21D;51970;53.484;49.488;2023-07-09T05:46:13;32.88;33.22
65369;HTU21D;51970;53.484;49.488;2023-07-09T05:48:39;32.91;33.63
65369;HTU21D;51970;53.484;49.488;2023-07-09T05:51:05;33.13;33.21
65369;HTU21D;51970;53.484;49.488;2023-07-09T05:53:32;33.12;33.04
65369;HTU21D;51970;53.484;49.488;2023-07-09T05:55:59;33.42;32.83
65369;HTU21D;51970;53.484;49.488;2023-07-09T05:58:25;33.60;32.02
65369;HTU21D;51970;53.484;49.488;2023-07-09T06:00:53;33.77;31.93
65369;HTU21D;51970;53.484;49.488;2023-07-09T06:03:21;33.92;31.92
65369;HTU21D;51970;53.484;49.488;2023-07-09T06:05:48;33.93;31.92
65369;HTU21D;51970;53.484;49.488;2023-07-09T06:08:21;33.56;32.88
65369;HTU21D;51970;53.484;49.488;2023-07-09T06:10:52;33.53;32.25
65369;HTU21D;51970;53.484;49.488;2023-07-09T06:13:19;33.73;32.47
65369;HTU21D;51970;53.484;49.488;2023-07-09T06:15:48;33.74;32.84
65369;HTU21D;51970;53.484;49.488;2023-07-09T06:18:14;33.46;33.08
65369;HTU21D;51970;53.484;49.488;2023-07-09T06:20:41;33.14;33.76
65369;HTU21D;51970;53.484;49.488;2023-07-09T06:23:07;33.17;33.63
65369;HTU21D;51970;53.484;49.488;2023-07-09T06:25:33;33.20;33.74
65369;HTU21D;51970;53.484;49.488;2023-07-09T06:28:00;33.38;33.31
65369;HTU21D;51970;53.484;49.488;2023-07-09T06:30:26;33.31;33.62
65369;HTU21D;51970;53.484;49.488;2023-07-09T06:32:52;33.25;33.40
65369;HTU21D;51970;53.484;49.488;2023-07-09T06:35:18;33.22;33.63
65369;HTU21D;51970;53.484;49.488;2023-07-09T06:37:44;33.21;33.46
65369;HTU21D;51970;53.484;49.488;2023-07-09T06:40:11;33.23;33.62
65369;HTU21D;51970;53.484;49.488;2023-07-09T06:42:38;33.20;33.64
65369;HTU21D;51970;53.484;49.488;2023-07-09T06:45:05;33.15;33.18
65369;HTU21D;51970;53.484;49.488;2023-07-09T06:47:31;33.31;33.29
65369;HTU21D;51970;53.484;49.488;2023-07-09T06:49:58;33.36;33.09
65369;HTU21D;51970;53.484;49.488;2023-07-09T06:52:24;33.26;33.00
65369;HTU21D;51970;53.484;49.488;2023-07-09T06:54:50;33.21;33.28
65369;HTU21D;51970;53.484;49.488;2023-07-09T06:57:20;33.31;33.51
65369;HTU21D;51970;53.484;49.488;2023-07-09T06:59:46;33.51;33.76
65369;HTU21D;51970;53.484;49.488;2023-07-09T07:02:13;33.76;32.88
65369;HTU21D;51970;53.484;49.488;2023-07-09T07:04:39;34.04;31.70
65369;HTU21D;51970;53.484;49.488;2023-07-09T07:07:06;34.22;31.16
65369;HTU21D;51970;53.484;49.488;2023-07-09T07:09:32;34.26;30.91
65369;HTU21D;51970;53.484;49.488;2023-07-09T07:11:59;34.25;30.66
65369;HTU21D;51970;53.484;49.488;2023-07-09T07:14:25;34.23;31.10
65369;HTU21D;51970;53.484;49.488;2023-07-09T07:16:51;34.49;30.90
65369;HTU21D;51970;53.484;49.488;2023-07-09T07:19:18;34.80;30.24
65369;HTU21D;51970;53.484;49.488;2023-07-09T07:21:44;34.69;30.02
65369;HTU21D;51970;53.484;49.488;2023-07-09T07:24:10;34.66;29.98
65369;HTU21D;51970;53.484;49.488;2023-07-09T07:26:36;34.64;30.45
65369;HTU21D;51970;53.484;49.488;2023-07-09T07:29:03;34.48;30.26
65369;HTU21D;51970;53.484;49.488;2023-07-09T07:31:29;34.45;30.39
65369;HTU21D;51970;53.484;49.488;2023-07-09T07:33:55;34.24;31.03
65369;HTU21D;51970;53.484;49.488;2023-07-09T07:36:21;34.11;31.41
65369;HTU21D;51970;53.484;49.488;2023-07-09T07:38:47;34.18;31.06
65369;HTU21D;51970;53.484;49.488;2023-07-09T07:41:14;33.92;32.06
65369;HTU21D;51970;53.484;49.488;2023-07-09T07:43:41;34.15;31.51
65369;HTU21D;51970;53.484;49.488;2023-07-09T07:46:07;34.75;29.80
65369;HTU21D;51970;53.484;49.488;2023-07-09T07:48:34;35.27;28.80
65369;HTU21D;51970;53.484;49.488;2023-07-09T07:51:02;35.54;28.24
65369;HTU21D;51970;53.484;49.488;2023-07-09T07:53:30;35.97;28.03
65369;HTU21D;51970;53.484;49.488;2023-07-09T07:55:57;36.10;26.91
65369;HTU21D;51970;53.484;49.488;2023-07-09T07:58:23;36.02;27.37
65369;HTU21D;51970;53.484;49.488;2023-07-09T08:00:54;36.15;26.88
65369;HTU21D;51970;53.484;49.488;2023-07-09T08:03:23;35.37;28.05
65369;HTU21D;51970;53.484;49.488;2023-07-09T08:05:50;35.00;28.42
65369;HTU21D;51970;53.484;49.488;2023-07-09T08:08:16;35.52;28.13
65369;HTU21D;51970;53.484;49.488;2023-07-09T08:10:43;36.03;27.18
65369;HTU21D;51970;53.484;49.488;2023-07-09T08:13:09;36.43;26.65
65369;HTU21D;51970;53.484;49.488;2023-07-09T08:15:36;36.43;25.32
65369;HTU21D;51970;53.484;49.488;2023-07-09T08:18:02;36.31;26.16
65369;HTU21D;51970;53.484;49.488;2023-07-09T08:20:28;36.16;25.59
65369;HTU21D;51970;53.484;49.488;2023-07-09T08:22:55;36.24;25.20
65369;HTU21D;51970;53.484;49.488;2023-07-09T08:25:21;35.84;25.38
65369;HTU21D;51970;53.484;49.488;2023-07-09T08:27:49;36.00;26.36
65369;HTU21D;51970;53.484;49.488;2023-07-09T08:30:15;35.73;25.88
65369;HTU21D;51970;53.484;49.488;2023-07-09T08:32:42;35.83;26.22
65369;HTU21D;51970;53.484;49.488;2023-07-09T08:35:08;36.36;25.75
65369;HTU21D;51970;53.484;49.488;2023-07-09T08:37:36;36.56;25.01
65369;HTU21D;51970;53.484;49.488;2023-07-09T08:40:03;36.77;23.81
65369;HTU21D;51970;53.484;49.488;2023-07-09T08:42:35;36.85;24.40
65369;HTU21D;51970;53.484;49.488;2023-07-09T08:45:12;36.58;24.31
65369;HTU21D;51970;53.484;49.488;2023-07-09T08:48:02;36.52;24.50
65369;HTU21D;51970;53.484;49.488;2023-07-09T08:53:01;36.07;24.69
65369;HTU21D;51970;53.484;49.488;2023-07-09T08:55:29;35.62;25.59
65369;HTU21D;51970;53.484;49.488;2023-07-09T08:58:14;35.89;25.07
65369;HTU21D;51970;53.484;49.488;2023-07-09T09:00:49;36.56;24.71
65369;HTU21D;51970;53.484;49.488;2023-07-09T09:06:33;36.33;25.21
65369;HTU21D;51970;53.484;49.488;2023-07-09T09:09:28;36.26;25.66
65369;HTU21D;51970;53.484;49.488;2023-07-09T09:12:12;36.29;25.22
65369;HTU21D;51970;53.484;49.488;2023-07-09T09:14:43;36.30;25.26
65369;HTU21D;51970;53.484;49.488;2023-07-09T09:17:13;35.93;25.87
65369;HTU21D;51970;53.484;49.488;2023-07-09T09:22:14;35.82;26.10
65369;HTU21D;51970;53.484;49.488;2023-07-09T09:27:21;36.32;25.58
65369;HTU21D;51970;53.484;49.488;2023-07-09T09:29:47;36.32;25.34
65369;HTU21D;51970;53.484;49.488;2023-07-09T09:32:30;36.32;25.69
65369;HTU21D;51970;53.484;49.488;2023-07-09T09:34:57;36.38;25.38
65369;HTU21D;51970;53.484;49.488;2023-07-09T09:37:31;36.03;25.60
65369;HTU21D;51970;53.484;49.488;2023-07-09T09:39:59;35.57;26.10
65369;HTU21D;51970;53.484;49.488;2023-07-09T09:42:25;35.69;26.40
65369;HTU21D;51970;53.484;49.488;2023-07-09T09:44:54;36.02;25.51
65369;HTU21D;51970;53.484;49.488;2023-07-09T09:47:21;35.84;25.46
65369;HTU21D;51970;53.484;49.488;2023-07-09T09:49:52;35.95;25.55
65369;HTU21D;51970;53.484;49.488;2023-07-09T09:52:19;36.09;25.14
65369;HTU21D;51970;53.484;49.488;2023-07-09T09:54:52;35.82;25.70
65369;HTU21D;51970;53.484;49.488;2023-07-09T09:57:21;35.70;25.93
65369;HTU21D;51970;53.484;49.488;2023-07-09T09:59:49;35.65;26.29
65369;HTU21D;51970;53.484;49.488;2023-07-09T10:02:21;35.87;25.96
65369;HTU21D;51970;53.484;49.488;2023-07-09T10:04:49;35.62;25.97
65369;HTU21D;51970;53.484;49.488;2023-07-09T10:07:23;35.58;25.88
65369;HTU21D;51970;53.484;49.488;2023-07-09T10:09:52;35.45;26.52
65369;HTU21D;51970;53.484;49.488;2023-07-09T10:12:36;35.38;26.22
65369;HTU21D;51970;53.484;49.488;2023-07-09T10:23:30;34.60;27.10
65369;HTU21D;51970;53.484;49.488;2023-07-09T10:26:18;34.54;26.86
65369;HTU21D;51970;53.484;49.488;2023-07-09T10:29:28;34.30;27.78
65369;HTU21D;51970;53.484;49.488;2023-07-09T10:34:38;34.16;27.54
65369;HTU21D;51970;53.484;49.488;2023-07-09T10:39:47;34.11;27.37
65369;HTU21D;51970;53.484;49.488;2023-07-09T10:42:37;34.24;27.90
65369;HTU21D;51970;53.484;49.488;2023-07-09T10:45:12;34.45;27.71
65369;HTU21D;51970;53.484;49.488;2023-07-09T10:47:43;34.50;27.58
65369;HTU21D;51970;53.484;49.488;2023-07-09T10:50:34;34.49;27.70
65369;HTU21D;51970;53.484;49.488;2023-07-09T10:53:42;34.52;27.29
65369;HTU21D;51970;53.484;49.488;2023-07-09T10:56:26;34.42;27.33
65369;HTU21D;51970;53.484;49.488;2023-07-09T11:01:41;34.41;27.97
65369;HTU21D;51970;53.484;49.488;2023-07-09T11:06:49;34.48;28.44
65369;HTU21D;51970;53.484;49.488;2023-07-09T11:11:50;34.12;28.82
65369;HTU21D;51970;53.484;49.488;2023-07-09T11:14:22;33.92;29.93
65369;HTU21D;51970;53.484;49.488;2023-07-09T11:16:49;33.92;29.88
65369;HTU21D;51970;53.484;49.488;2023-07-09T11:19:18;33.80;30.16
65369;HTU21D;51970;53.484;49.488;2023-07-09T11:21:58;33.79;30.24
65369;HTU21D;51970;53.484;49.488;2023-07-09T11:27:22;33.51;30.16
65369;HTU21D;51970;53.484;49.488;2023-07-09T11:30:00;33.49;30.48
65369;HTU21D;51970;53.484;49.488;2023-07-09T11:32:29;33.50;30.57
65369;HTU21D;51970;53.484;49.488;2023-07-09T11:35:07;33.33;30.74
65369;HTU21D;51970;53.484;49.488;2023-07-09T11:37:44;33.18;30.98
65369;HTU21D;51970;53.484;49.488;2023-07-09T11:40:12;32.96;31.40
65369;HTU21D;51970;53.484;49.488;2023-07-09T11:42:59;32.85;31.77
65369;HTU21D;51970;53.484;49.488;2023-07-09T11:45:32;32.86;31.85
65369;HTU21D;51970;53.484;49.488;2023-07-09T11:50:44;32.75;31.51
65369;HTU21D;51970;53.484;49.488;2023-07-09T11:53:38;32.68;31.57
65369;HTU21D;51970;53.484;49.488;2023-07-09T11:56:08;32.61;31.57
65369;HTU21D;51970;53.484;49.488;2023-07-09T11:58:35;32.73;31.71
65369;HTU21D;51970;53.484;49.488;2023-07-09T12:01:03;32.88;31.28
65369;HTU21D;51970;53.484;49.488;2023-07-09T12:03:39;32.91;31.39
65369;HTU21D;51970;53.484;49.488;2023-07-09T12:06:29;32.92;31.13
65369;HTU21D;51970;53.484;49.488;2023-07-09T12:08:57;32.99;30.80
65369;HTU21D;51970;53.484;49.488;2023-07-09T12:11:29;32.94;30.66
65369;HTU21D;51970;53.484;49.488;2023-07-09T12:14:05;32.99;30.53
65369;HTU21D;51970;53.484;49.488;2023-07-09T12:16:37;33.05;30.70
65369;HTU21D;51970;53.484;49.488;2023-07-09T12:19:04;33.18;30.33
65369;HTU21D;51970;53.484;49.488;2023-07-09T12:21:34;33.27;30.09
65369;HTU21D;51970;53.484;49.488;2023-07-09T12:24:01;33.38;30.07
65369;HTU21D;51970;53.484;49.488;2023-07-09T12:26:31;33.43;29.84
65369;HTU21D;51970;53.484;49.488;2023-07-09T12:28:58;33.47;29.88
65369;HTU21D;51970;53.484;49.488;2023-07-09T12:31:27;33.41;29.42
65369;HTU21D;51970;53.484;49.488;2023-07-09T12:33:56;33.27;30.53
65369;HTU21D;51970;53.484;49.488;2023-07-09T12:36:27;33.43;30.12
65369;HTU21D;51970;53.484;49.488;2023-07-09T12:38:57;33.55;30.31
65369;HTU21D;51970;53.484;49.488;2023-07-09T12:41:37;33.44;30.24
65369;HTU21D;51970;53.484;49.488;2023-07-09T12:44:04;33.48;30.24
65369;HTU21D;51970;53.484;49.488;2023-07-09T12:46:31;33.59;30.35
65369;HTU21D;51970;53.484;49.488;2023-07-09T12:48:57;33.56;30.38
65369;HTU21D;51970;53.484;49.488;2023-07-09T12:51:25;33.66;30.19
65369;HTU21D;51970;53.484;49.488;2023-07-09T12:54:14;33.62;30.44
65369;HTU21D;51970;53.484;49.488;2023-07-09T12:56:41;33.60;29.64
65369;HTU21D;51970;53.484;49.488;2023-07-09T12:59:24;33.62;30.22
65369;HTU21D;51970;53.484;49.488;2023-07-09T13:02:02;33.73;29.55
65369;HTU21D;51970;53.484;49.488;2023-07-09T13:04:36;33.79;29.83
65369;HTU21D;51970;53.484;49.488;2023-07-09T13:07:04;33.88;29.56
65369;HTU21D;51970;53.484;49.488;2023-07-09T13:09:31;33.91;29.87
65369;HTU21D;51970;53.484;49.488;2023-07-09T13:11:58;34.03;29.74
65369;HTU21D;51970;53.484;49.488;2023-07-09T13:14:28;34.04;29.29
65369;HTU21D;51970;53.484;49.488;2023-07-09T13:17:05;33.99;29.38
65369;HTU21D;51970;53.484;49.488;2023-07-09T13:19:32;33.88;29.80
65369;HTU21D;51970;53.484;49.488;2023-07-09T13:21:59;33.88;29.99
65369;HTU21D;51970;53.484;49.488;2023-07-09T13:24:29;33.99;29.80
65369;HTU21D;51970;53.484;49.488;2023-07-09T13:26:56;34.02;29.71
65369;HTU21D;51970;53.484;49.488;2023-07-09T13:29:26;33.99;29.89
65369;HTU21D;51970;53.484;49.488;2023-07-09T13:31:53;33.75;30.64
65369;HTU21D;51970;53.484;49.488;2023-07-09T13:34:27;33.58;30.83
65369;HTU21D;51970;53.484;49.488;2023-07-09T13:36:59;33.50;31.17
65369;HTU21D;51970;53.484;49.488;2023-07-09T13:39:25;33.48;31.32
65369;HTU21D;51970;53.484;49.488;2023-07-09T13:41:52;33.46;31.75
65369;HTU21D;51970;53.484;49.488;2023-07-09T13:44:29;33.30;32.06
65369;HTU21D;51970;53.484;49.488;2023-07-09T13:46:57;32.98;32.64
65369;HTU21D;51970;53.484;49.488;2023-07-09T13:49:25;32.72;33.38
65369;HTU21D;51970;53.484;49.488;2023-07-09T13:51:55;32.55;33.89
65369;HTU21D;51970;53.484;49.488;2023-07-09T13:54:29;32.41;34.29
65369;HTU21D;51970;53.484;49.488;2023-07-09T13:57:03;32.23;34.73
65369;HTU21D;51970;53.484;49.488;2023-07-09T13:59:29;32.05;34.99
65369;HTU21D;51970;53.484;49.488;2023-07-09T14:01:57;31.90;35.47
65369;HTU21D;51970;53.484;49.488;2023-07-09T14:04:25;31.80;36.05
65369;HTU21D;51970;53.484;49.488;2023-07-09T14:06:52;31.65;36.48
65369;HTU21D;51970;53.484;49.488;2023-07-09T14:09:18;31.54;37.05
65369;HTU21D;51970;53.484;49.488;2023-07-09T14:11:49;31.22;42.62
65369;HTU21D;51970;53.484;49.488;2023-07-09T14:14:20;28.75;60.31
65369;HTU21D;51970;53.484;49.488;2023-07-09T14:16:48;25.64;80.94
65369;HTU21D;51970;53.484;49.488;2023-07-09T14:19:16;23.31;89.21
65369;HTU21D;51970;53.484;49.488;2023-07-09T14:21:43;22.72;91.43
65369;HTU21D;51970;53.484;49.488;2023-07-09T14:24:25;22.57;92.05
65369;HTU21D;51970;53.484;49.488;2023-07-09T14:26:53;22.69;92.70
65369;HTU21D;51970;53.484;49.488;2023-07-09T14:29:20;22.95;92.70
65369;HTU21D;51970;53.484;49.488;2023-07-09T14:31:46;23.05;91.98
65369;HTU21D;51970;53.484;49.488;2023-07-09T14:34:27;23.34;92.34
65369;HTU21D;51970;53.484;49.488;2023-07-09T14:36:56;23.59;91.19
65369;HTU21D;51970;53.484;49.488;2023-07-09T14:39:25;23.68;89.28
65369;HTU21D;51970;53.484;49.488;2023-07-09T14:41:51;23.88;87.87
65369;HTU21D;51970;53.484;49.488;2023-07-09T14:44:29;24.31;88.02
65369;HTU21D;51970;53.484;49.488;2023-07-09T14:46:58;24.44;83.23
65369;HTU21D;51970;53.484;49.488;2023-07-09T14:49:25;24.54;78.67
65369;HTU21D;51970;53.484;49.488;2023-07-09T14:51:53;24.85;77.18
65369;HTU21D;51970;53.484;49.488;2023-07-09T14:54:25;25.00;77.06
65369;HTU21D;51970;53.484;49.488;2023-07-09T14:56:53;25.19;76.53
65369;HTU21D;51970;53.484;49.488;2023-07-09T14:59:20;25.36;75.05
65369;HTU21D;51970;53.484;49.488;2023-07-09T15:01:47;25.42;72.99
65369;HTU21D;51970;53.484;49.488;2023-07-09T15:04:30;25.58;73.67
65369;HTU21D;51970;53.484;49.488;2023-07-09T15:06:58;25.67;74.90
65369;HTU21D;51970;53.484;49.488;2023-07-09T15:09:27;25.78;74.09
65369;HTU21D;51970;53.484;49.488;2023-07-09T15:11:55;25.86;72.45
65369;HTU21D;51970;53.484;49.488;2023-07-09T15:14:23;25.91;72.48
65369;HTU21D;51970;53.484;49.488;2023-07-09T15:16:50;26.04;72.00
65369;HTU21D;51970;53.484;49.488;2023-07-09T15:19:19;26.07;72.57
65369;HTU21D;51970;53.484;49.488;2023-07-09T15:21:46;26.10;71.95
65369;HTU21D;51970;53.484;49.488;2023-07-09T15:24:28;26.05;68.97
65369;HTU21D;51970;53.484;49.488;2023-07-09T15:26:55;26.07;70.73
65369;HTU21D;51970;53.484;49.488;2023-07-09T15:29:23;26.17;72.31
65369;HTU21D;51970;53.484;49.488;2023-07-09T15:31:49;26.16;70.65
65369;HTU21D;51970;53.484;49.488;2023-07-09T15:34:16;26.15;73.92
65369;HTU21D;51970;53.484;49.488;2023-07-09T15:36:48;26.17;74.11
65369;HTU21D;51970;53.484;49.488;2023-07-09T15:39:16;26.13;71.31
65369;HTU21D;51970;53.484;49.488;2023-07-09T15:41:42;26.18;69.98
65369;HTU21D;51970;53.484;49.488;2023-07-09T15:44:13;26.24;70.19
65369;HTU21D;51970;53.484;49.488;2023-07-09T15:46:50;26.28;72.06
65369;HTU21D;51970;53.484;49.488;2023-07-09T15:49:18;26.31;68.01
65369;HTU21D;51970;53.484;49.488;2023-07-09T15:51:44;26.24;70.67
65369;HTU21D;51970;53.484;49.488;2023-07-09T15:54:15;26.15;71.38
65369;HTU21D;51970;53.484;49.488;2023-07-09T15:56:43;25.99;68.62